createdAt,value
2022-09-30T00:00:43.495Z,8.20
2022-09-30T00:02:35.705Z,8.20
2022-09-30T00:04:15.639Z,8.20
2022-09-30T00:05:48.214Z,8.20
2022-09-30T00:07:20.616Z,8.20
2022-09-30T00:08:53.946Z,8.20
2022-09-30T00:10:26.143Z,8.20
2022-09-30T00:11:58.506Z,8.10
2022-09-30T00:13:37.366Z,8.10
2022-09-30T00:15:10.519Z,8.10
2022-09-30T00:16:43.696Z,8.10
2022-09-30T00:18:16.164Z,8.10
2022-09-30T00:19:48.659Z,8.10
2022-09-30T00:21:21.283Z,8.10
2022-09-30T00:22:53.436Z,8.10
2022-09-30T00:24:26.018Z,8.10
2022-09-30T00:26:04.414Z,8.10
2022-09-30T00:27:36.608Z,8.10
2022-09-30T00:29:11.013Z,8.10
2022-09-30T00:30:43.811Z,8.10
2022-09-30T00:32:16.112Z,8.10
2022-09-30T00:34:07.841Z,8.10
2022-09-30T00:35:40.765Z,8.10
2022-09-30T00:37:15.226Z,8.10
2022-09-30T00:38:47.337Z,8.10
2022-09-30T00:40:21.031Z,8.10
2022-09-30T00:41:59.175Z,8.20
2022-09-30T00:43:53.424Z,8.20
2022-09-30T00:45:31.980Z,8.20
2022-09-30T00:47:06.982Z,8.20
2022-09-30T00:48:40.275Z,8.20
2022-09-30T00:50:55.556Z,8.20
2022-09-30T00:52:28.876Z,8.20
2022-09-30T00:54:09.876Z,8.20
2022-09-30T00:55:51.567Z,8.20
2022-09-30T00:57:23.826Z,8.20
2022-09-30T00:59:08.533Z,8.20
2022-09-30T01:00:41.591Z,8.30
2022-09-30T01:02:14.854Z,8.30
2022-09-30T01:03:53.907Z,8.30
2022-09-30T01:05:27.471Z,8.30
2022-09-30T01:07:06.882Z,8.30
2022-09-30T01:08:40.680Z,8.30
2022-09-30T01:10:13.065Z,8.30
2022-09-30T01:11:46.732Z,8.30
2022-09-30T01:13:23.918Z,8.30
2022-09-30T01:15:00.178Z,8.40
2022-09-30T01:17:00.638Z,8.30
2022-09-30T01:18:51.881Z,8.30
2022-09-30T01:20:51.496Z,8.30
2022-09-30T01:22:59.366Z,8.30
2022-09-30T01:25:05.490Z,8.30
2022-09-30T01:27:02.252Z,8.30
2022-09-30T01:29:33.712Z,8.30
2022-09-30T01:31:41.738Z,8.30
2022-09-30T01:33:41.372Z,8.20
2022-09-30T01:35:42.850Z,8.30
2022-09-30T01:37:46.327Z,8.30
2022-09-30T01:40:22.680Z,8.20
2022-09-30T01:42:18.247Z,8.20
2022-09-30T01:44:08.457Z,8.20
2022-09-30T01:46:19.703Z,8.20
2022-09-30T01:48:40.536Z,8.20
2022-09-30T01:50:25.484Z,8.20
2022-09-30T01:52:15.439Z,8.20
2022-09-30T01:53:56.282Z,8.20
2022-09-30T01:55:50.724Z,8.20
2022-09-30T01:57:52.820Z,8.30
2022-09-30T02:00:08.130Z,8.30
2022-09-30T02:01:59.611Z,8.30
2022-09-30T02:03:47.372Z,8.30
2022-09-30T02:05:45.026Z,8.30
2022-09-30T02:07:40.747Z,8.30
2022-09-30T02:09:25.067Z,8.30
2022-09-30T02:11:22.392Z,8.30
2022-09-30T02:13:05.507Z,8.30
2022-09-30T02:14:47.516Z,8.30
2022-09-30T02:16:35.033Z,8.30
2022-09-30T02:18:41.133Z,8.30
2022-09-30T02:20:29.509Z,8.30
2022-09-30T02:22:14.438Z,8.30
2022-09-30T02:23:53.139Z,8.30
2022-09-30T02:25:36.681Z,8.30
2022-09-30T02:27:41.104Z,8.30
2022-09-30T02:29:23.694Z,8.30
2022-09-30T02:31:02.201Z,8.30
2022-09-30T02:32:46.912Z,8.40
2022-09-30T02:34:29.272Z,8.40
2022-09-30T02:36:18.643Z,8.40
2022-09-30T02:38:03.792Z,8.50
2022-09-30T02:39:54.280Z,8.50
2022-09-30T02:41:30.868Z,8.50
2022-09-30T02:43:05.312Z,8.50
2022-09-30T02:44:39.107Z,8.50
2022-09-30T02:47:01.373Z,8.50
2022-09-30T02:48:50.267Z,8.50
2022-09-30T02:50:43.753Z,8.50
2022-09-30T02:52:37.066Z,8.40
2022-09-30T02:54:30.674Z,8.40
2022-09-30T02:56:43.933Z,8.40
2022-09-30T02:58:21.459Z,8.40
2022-09-30T02:59:53.767Z,8.30
2022-09-30T03:01:26.523Z,8.30
2022-09-30T03:03:19.897Z,8.40
2022-09-30T03:04:52.091Z,8.40
2022-09-30T03:06:25.044Z,8.40
2022-09-30T03:07:57.828Z,8.40
2022-09-30T03:09:30.155Z,8.40
2022-09-30T03:11:04.580Z,8.50
2022-09-30T03:13:20.887Z,8.50
2022-09-30T03:15:23.858Z,8.50
2022-09-30T03:18:14.926Z,8.40
2022-09-30T03:20:04.908Z,8.40
2022-09-30T03:22:11.710Z,8.40
2022-09-30T03:24:09.843Z,8.40
2022-09-30T03:25:59.517Z,8.40
2022-09-30T03:28:02.807Z,8.40
2022-09-30T03:29:54.767Z,8.40
2022-09-30T03:31:48.804Z,8.40
2022-09-30T03:33:48.247Z,8.40
2022-09-30T03:35:41.555Z,8.40
2022-09-30T03:37:30.252Z,8.40
2022-09-30T03:39:57.004Z,8.40
2022-09-30T03:42:04.970Z,8.40
2022-09-30T03:43:49.642Z,8.40
2022-09-30T03:46:11.674Z,8.40
2022-09-30T03:47:51.972Z,8.40
2022-09-30T03:49:31.256Z,8.30
2022-09-30T03:51:05.706Z,8.30
2022-09-30T03:52:38.595Z,8.30
2022-09-30T03:54:13.656Z,8.30
2022-09-30T03:55:52.277Z,8.30
2022-09-30T03:57:30.039Z,8.30
2022-09-30T03:59:02.352Z,8.30
2022-09-30T04:00:35.076Z,8.20
2022-09-30T04:02:09.926Z,8.20
2022-09-30T04:03:42.704Z,8.30
2022-09-30T04:05:15.199Z,8.30
2022-09-30T04:06:47.675Z,8.30
2022-09-30T04:08:20.292Z,8.30
2022-09-30T04:09:52.999Z,8.30
2022-09-30T04:11:25.170Z,8.30
2022-09-30T04:12:57.870Z,8.40
2022-09-30T04:14:30.271Z,8.40
2022-09-30T04:16:03.360Z,8.40
2022-09-30T04:17:35.534Z,8.40
2022-09-30T04:19:07.712Z,8.40
2022-09-30T04:20:39.833Z,8.40
2022-09-30T04:22:12.277Z,8.40
2022-09-30T04:23:45.015Z,8.50
2022-09-30T04:25:17.568Z,8.50
2022-09-30T04:26:50.758Z,8.50
2022-09-30T04:28:23.704Z,8.50
2022-09-30T04:29:56.170Z,8.60
2022-09-30T04:31:28.392Z,8.60
2022-09-30T04:33:00.901Z,8.60
2022-09-30T04:34:33.295Z,8.60
2022-09-30T04:36:06.359Z,8.60
2022-09-30T04:37:45.829Z,8.60
2022-09-30T04:39:18.192Z,8.60
2022-09-30T04:40:52.320Z,8.60
2022-09-30T04:42:25.213Z,8.70
2022-09-30T04:43:57.440Z,8.70
2022-09-30T04:45:30.109Z,8.70
2022-09-30T04:47:03.382Z,8.70
2022-09-30T04:48:35.550Z,8.70
2022-09-30T04:50:08.225Z,8.70
2022-09-30T04:51:43.965Z,8.70
2022-09-30T04:53:18.417Z,8.80
2022-09-30T04:54:50.558Z,8.80
2022-09-30T04:56:24.395Z,8.80
2022-09-30T04:57:56.744Z,8.80
2022-09-30T04:59:29.495Z,8.80
2022-09-30T05:01:11.250Z,8.80
2022-09-30T05:02:44.951Z,8.90
2022-09-30T05:04:17.160Z,8.80
2022-09-30T05:05:49.558Z,8.80
2022-09-30T05:07:22.310Z,8.90
2022-09-30T05:08:54.861Z,8.80
2022-09-30T05:10:27.593Z,8.90
2022-09-30T05:12:02.385Z,8.90
2022-09-30T05:13:39.127Z,8.90
2022-09-30T05:15:11.794Z,8.90
2022-09-30T05:16:43.928Z,8.90
2022-09-30T05:18:16.712Z,9.00
2022-09-30T05:19:48.843Z,9.00
2022-09-30T05:21:20.971Z,9.00
2022-09-30T05:22:56.798Z,9.00
2022-09-30T05:24:30.961Z,9.00
2022-09-30T05:26:03.592Z,9.00
2022-09-30T05:27:36.550Z,9.00
2022-09-30T05:29:10.416Z,9.00
2022-09-30T05:30:43.653Z,9.00
2022-09-30T05:32:16.015Z,9.00
2022-09-30T05:33:48.238Z,9.00
2022-09-30T05:35:23.071Z,9.00
2022-09-30T05:36:55.557Z,9.00
2022-09-30T05:38:28.558Z,9.10
2022-09-30T05:40:01.139Z,9.00
2022-09-30T05:41:33.372Z,9.10
2022-09-30T05:43:07.084Z,9.00
2022-09-30T05:44:39.339Z,9.10
2022-09-30T05:46:11.732Z,9.10
2022-09-30T05:47:44.024Z,9.10
2022-09-30T05:49:16.683Z,9.10
2022-09-30T05:50:50.586Z,9.10
2022-09-30T05:52:22.729Z,9.10
2022-09-30T05:53:54.966Z,9.10
2022-09-30T05:55:27.591Z,9.10
2022-09-30T05:57:00.864Z,9.10
2022-09-30T05:58:33.691Z,9.10
2022-09-30T06:00:06.795Z,9.20
2022-09-30T06:01:39.376Z,9.20
2022-09-30T06:03:12.186Z,9.30
2022-09-30T06:04:44.365Z,9.30
2022-09-30T06:06:17.108Z,9.30
2022-09-30T06:07:50.798Z,9.30
2022-09-30T06:09:23.138Z,9.30
2022-09-30T06:10:55.474Z,9.30
2022-09-30T06:12:28.811Z,9.20
2022-09-30T06:14:01.372Z,9.20
2022-09-30T06:15:33.768Z,9.20
2022-09-30T06:17:06.435Z,9.20
2022-09-30T06:18:41.612Z,9.20
2022-09-30T06:20:14.831Z,9.20
2022-09-30T06:21:47.176Z,9.30
2022-09-30T06:23:20.331Z,9.30
2022-09-30T06:24:55.086Z,9.30
2022-09-30T06:26:27.963Z,9.30
2022-09-30T06:28:01.603Z,9.40
2022-09-30T06:29:33.772Z,9.30
2022-09-30T06:31:07.078Z,9.40
2022-09-30T06:32:39.926Z,9.40
2022-09-30T06:34:12.193Z,9.40
2022-09-30T06:35:47.248Z,9.40
2022-09-30T06:37:20.260Z,9.40
2022-09-30T06:38:54.485Z,9.40
2022-09-30T06:40:26.795Z,9.40
2022-09-30T06:41:58.986Z,9.40
2022-09-30T06:43:35.062Z,9.40
2022-09-30T06:45:26.480Z,9.40
2022-09-30T06:47:01.109Z,9.40
2022-09-30T06:48:38.547Z,9.40
2022-09-30T06:50:21.026Z,9.40
2022-09-30T06:51:57.053Z,9.40
2022-09-30T06:53:29.724Z,9.40
2022-09-30T06:55:01.867Z,9.50
2022-09-30T06:56:34.827Z,9.50
2022-09-30T06:58:13.333Z,9.50
2022-09-30T06:59:45.815Z,9.50
2022-09-30T07:01:20.767Z,9.50
2022-09-30T07:02:59.265Z,9.50
2022-09-30T07:04:32.252Z,9.50
2022-09-30T07:06:06.859Z,9.50
2022-09-30T07:07:39.183Z,9.50
2022-09-30T07:09:12.585Z,9.50
2022-09-30T07:10:47.612Z,9.50
2022-09-30T07:12:19.833Z,9.50
2022-09-30T07:13:52.215Z,9.60
2022-09-30T07:15:24.379Z,9.60
2022-09-30T07:16:57.290Z,9.50
2022-09-30T07:18:29.570Z,9.60
2022-09-30T07:20:02.055Z,9.60
2022-09-30T07:21:34.718Z,9.60
2022-09-30T07:23:07.016Z,9.70
2022-09-30T07:24:39.198Z,9.70
2022-09-30T07:26:12.127Z,9.70
2022-09-30T07:27:44.969Z,9.70
2022-09-30T07:29:17.367Z,9.70
2022-09-30T07:30:50.506Z,9.70
2022-09-30T07:32:23.550Z,9.70
2022-09-30T07:33:56.766Z,9.70
2022-09-30T07:35:29.189Z,9.70
2022-09-30T07:37:02.407Z,9.70
2022-09-30T07:38:38.921Z,9.70
2022-09-30T07:40:11.735Z,9.70
2022-09-30T07:41:45.493Z,9.80
2022-09-30T07:43:19.163Z,9.70
2022-09-30T07:44:52.702Z,9.80
2022-09-30T07:46:30.362Z,9.80
2022-09-30T07:48:03.109Z,9.80
2022-09-30T07:49:35.992Z,9.80
2022-09-30T07:51:10.092Z,9.80
2022-09-30T07:52:42.743Z,9.80
2022-09-30T07:54:21.116Z,9.80
2022-09-30T07:55:53.427Z,9.90
2022-09-30T07:57:25.636Z,9.80
2022-09-30T07:59:01.204Z,9.80
2022-09-30T08:00:42.892Z,9.80
2022-09-30T08:02:19.038Z,9.90
2022-09-30T08:03:59.111Z,9.80
2022-09-30T08:05:31.526Z,9.80
2022-09-30T08:07:04.799Z,9.90
2022-09-30T08:08:37.718Z,9.90
2022-09-30T08:10:10.323Z,9.90
2022-09-30T08:11:43.095Z,9.90
2022-09-30T08:13:16.675Z,10.00
2022-09-30T08:14:48.843Z,9.90
2022-09-30T08:16:24.179Z,10.00
2022-09-30T08:17:56.475Z,10.00
2022-09-30T08:19:31.238Z,10.00
2022-09-30T08:21:06.481Z,10.10
2022-09-30T08:22:38.631Z,10.10
2022-09-30T08:24:11.274Z,10.10
2022-09-30T08:25:43.667Z,10.10
2022-09-30T08:27:15.919Z,10.10
2022-09-30T08:28:48.370Z,10.10
2022-09-30T08:30:20.608Z,10.20
2022-09-30T08:31:53.188Z,10.20
2022-09-30T08:33:25.459Z,10.30
2022-09-30T08:34:57.651Z,10.20
2022-09-30T08:36:30.666Z,10.30
2022-09-30T08:38:03.725Z,10.30
2022-09-30T08:39:37.868Z,10.30
2022-09-30T08:42:02.257Z,10.30
2022-09-30T08:44:01.871Z,10.30
2022-09-30T08:46:07.478Z,10.30
2022-09-30T08:48:28.775Z,10.30
2022-09-30T08:50:29.695Z,10.20
2022-09-30T08:52:05.543Z,10.20
2022-09-30T08:53:43.772Z,10.20
2022-09-30T08:55:24.144Z,10.20
2022-09-30T08:56:57.347Z,10.20
2022-09-30T08:58:37.781Z,10.20
2022-09-30T09:00:16.317Z,10.20
2022-09-30T09:01:58.255Z,10.20
2022-09-30T09:03:31.847Z,10.20
2022-09-30T09:05:14.110Z,10.20
2022-09-30T09:07:23.404Z,10.20
2022-09-30T09:09:23.199Z,10.20
2022-09-30T09:11:21.148Z,10.20
2022-09-30T09:13:02.276Z,10.10
2022-09-30T09:15:02.621Z,10.20
2022-09-30T09:17:34.361Z,10.20
2022-09-30T09:19:10.963Z,10.10
2022-09-30T09:20:56.397Z,10.20
2022-09-30T09:22:31.655Z,10.20
2022-09-30T09:24:14.807Z,10.20
2022-09-30T09:25:49.879Z,10.10
2022-09-30T09:27:42.258Z,10.20
2022-09-30T09:29:46.607Z,10.20
2022-09-30T09:31:20.675Z,10.20
2022-09-30T09:32:58.175Z,10.20
2022-09-30T09:34:31.191Z,10.20
2022-09-30T09:36:30.754Z,10.20
2022-09-30T09:38:27.333Z,10.20
2022-09-30T09:40:04.317Z,10.20
2022-09-30T09:42:10.197Z,10.20
2022-09-30T09:44:01.079Z,10.20
2022-09-30T09:46:02.012Z,10.20
2022-09-30T09:47:34.393Z,10.20
2022-09-30T09:49:23.555Z,10.20
2022-09-30T09:51:13.203Z,10.30
2022-09-30T09:53:30.212Z,10.30
2022-09-30T09:55:03.052Z,10.20
2022-09-30T09:56:38.242Z,10.20
2022-09-30T09:58:14.587Z,10.20
2022-09-30T10:00:39.121Z,10.20
2022-09-30T10:02:28.479Z,10.30
2022-09-30T10:04:24.490Z,10.30
2022-09-30T10:06:13.409Z,10.30
2022-09-30T10:07:46.106Z,10.30
2022-09-30T10:09:28.317Z,10.30
2022-09-30T10:11:07.562Z,10.40
2022-09-30T10:12:42.105Z,10.40
2022-09-30T10:14:22.333Z,10.40
2022-09-30T10:15:58.075Z,10.50
2022-09-30T10:17:37.186Z,10.50
2022-09-30T10:19:27.540Z,10.50
2022-09-30T10:21:25.775Z,10.50
2022-09-30T10:23:30.549Z,10.60
2022-09-30T10:25:15.327Z,10.60
2022-09-30T10:26:49.169Z,10.60
2022-09-30T10:28:30.073Z,10.60
2022-09-30T10:30:03.778Z,10.60
2022-09-30T10:31:44.842Z,10.60
2022-09-30T10:33:28.624Z,10.70
2022-09-30T10:35:18.557Z,10.70
2022-09-30T10:36:52.535Z,10.70
2022-09-30T10:38:29.863Z,10.70
2022-09-30T10:40:16.288Z,10.70
2022-09-30T10:41:50.188Z,10.70
2022-09-30T10:43:44.814Z,10.70
2022-09-30T10:45:22.445Z,10.70
2022-09-30T10:47:02.548Z,10.70
2022-09-30T10:48:38.196Z,10.70
2022-09-30T10:50:21.661Z,10.70
2022-09-30T10:51:57.243Z,10.70
2022-09-30T10:53:35.873Z,10.70
2022-09-30T10:55:21.919Z,10.70
2022-09-30T10:56:54.623Z,10.70
2022-09-30T10:58:43.210Z,10.60
2022-09-30T11:00:25.470Z,10.60
2022-09-30T11:02:16.709Z,10.60
2022-09-30T11:04:25.468Z,10.70
2022-09-30T11:06:00.420Z,10.70
2022-09-30T11:07:46.317Z,10.70
2022-09-30T11:09:38.067Z,10.60
2022-09-30T11:11:27.487Z,10.70
2022-09-30T11:13:37.238Z,10.60
2022-09-30T11:15:40.399Z,10.60
2022-09-30T11:17:34.525Z,10.60
2022-09-30T11:19:22.098Z,10.50
2022-09-30T11:21:02.000Z,10.60
2022-09-30T11:22:47.932Z,10.50
2022-09-30T11:24:50.219Z,10.60
2022-09-30T11:27:20.032Z,10.60
2022-09-30T11:29:51.177Z,10.60
2022-09-30T11:31:59.625Z,10.60
2022-09-30T11:33:48.109Z,10.60
2022-09-30T11:36:42.864Z,10.60
2022-09-30T11:38:34.246Z,10.60
2022-09-30T11:40:38.906Z,10.50
2022-09-30T11:42:28.606Z,10.60
2022-09-30T11:44:15.715Z,10.50
2022-09-30T11:46:20.754Z,10.50
2022-09-30T11:48:28.226Z,10.50
2022-09-30T11:50:57.314Z,10.50
2022-09-30T11:53:26.658Z,10.50
2022-09-30T11:55:25.949Z,10.40
2022-09-30T11:57:24.411Z,10.40
2022-09-30T11:59:03.389Z,10.50
2022-09-30T12:00:45.460Z,10.50
2022-09-30T12:02:39.295Z,10.50
2022-09-30T12:04:36.871Z,10.50
2022-09-30T12:06:26.781Z,10.50
2022-09-30T12:08:18.607Z,10.50
2022-09-30T12:09:59.438Z,10.50
2022-09-30T12:11:52.335Z,10.50
2022-09-30T12:13:36.538Z,10.50
2022-09-30T12:15:18.588Z,10.50
2022-09-30T12:16:51.636Z,10.60
2022-09-30T12:18:37.567Z,10.60
2022-09-30T12:20:38.588Z,10.60
2022-09-30T12:22:28.912Z,10.60
2022-09-30T12:24:17.255Z,10.60
2022-09-30T12:26:01.955Z,10.60
2022-09-30T12:27:50.352Z,10.60
2022-09-30T12:29:56.587Z,10.60
2022-09-30T12:32:09.317Z,10.60
2022-09-30T12:34:06.921Z,10.60
2022-09-30T12:36:40.031Z,10.60
2022-09-30T12:38:40.340Z,10.60
2022-09-30T12:40:52.355Z,10.50
2022-09-30T12:43:20.807Z,10.50
2022-09-30T12:45:24.873Z,10.50
2022-09-30T12:47:38.103Z,10.50
2022-09-30T12:49:19.956Z,10.50
2022-09-30T12:50:58.124Z,10.50
2022-09-30T12:52:35.470Z,10.50
2022-09-30T12:54:20.885Z,10.50
2022-09-30T12:55:54.576Z,10.50
2022-09-30T12:57:32.585Z,10.50
2022-09-30T12:59:05.155Z,10.50
2022-09-30T13:00:38.547Z,10.50
2022-09-30T13:02:40.372Z,10.50
2022-09-30T13:04:31.874Z,10.50
2022-09-30T13:06:06.556Z,10.50
2022-09-30T13:08:04.711Z,10.50
2022-09-30T13:10:01.631Z,10.50
2022-09-30T13:11:42.559Z,10.50
2022-09-30T13:13:24.499Z,10.50
2022-09-30T13:15:42.690Z,10.50
2022-09-30T13:17:18.200Z,10.50
2022-09-30T13:18:53.386Z,10.50
2022-09-30T13:20:57.100Z,10.50
2022-09-30T13:22:31.847Z,10.50
2022-09-30T13:24:05.620Z,10.60
2022-09-30T13:25:56.555Z,10.50
2022-09-30T13:27:38.035Z,10.50
2022-09-30T13:29:19.659Z,10.50
2022-09-30T13:31:15.879Z,10.50
2022-09-30T13:33:02.311Z,10.50
2022-09-30T13:34:54.497Z,10.50
2022-09-30T13:36:44.353Z,10.50
2022-09-30T13:38:32.797Z,10.50
2022-09-30T13:40:15.767Z,10.50
2022-09-30T13:42:21.705Z,10.40
2022-09-30T13:44:04.563Z,10.50
2022-09-30T13:45:39.514Z,10.40
2022-09-30T13:47:26.345Z,10.40
2022-09-30T13:49:03.443Z,10.40
2022-09-30T13:50:56.089Z,10.40
2022-09-30T13:52:38.240Z,10.40
2022-09-30T13:54:35.865Z,10.40
2022-09-30T13:56:19.978Z,10.40
2022-09-30T13:58:56.787Z,10.50
2022-09-30T14:00:46.915Z,10.40
2022-09-30T14:02:28.384Z,10.40
2022-09-30T14:04:26.492Z,10.50
2022-09-30T14:06:04.700Z,10.40
2022-09-30T14:08:09.867Z,10.40
2022-09-30T14:10:22.793Z,10.40
2022-09-30T14:12:13.571Z,10.40
2022-09-30T14:14:05.325Z,10.40
2022-09-30T14:16:03.343Z,10.50
2022-09-30T14:18:23.324Z,10.40
2022-09-30T14:20:07.534Z,10.40
2022-09-30T14:21:55.064Z,10.30
2022-09-30T14:23:28.067Z,10.30
2022-09-30T14:25:01.075Z,10.30
2022-09-30T14:26:57.568Z,10.30
2022-09-30T14:28:49.279Z,10.30
2022-09-30T14:30:27.988Z,10.20
2022-09-30T14:32:01.169Z,10.30
2022-09-30T14:33:34.840Z,10.30
2022-09-30T14:35:12.596Z,10.30
2022-09-30T14:36:46.292Z,10.30
2022-09-30T14:38:28.325Z,10.30
2022-09-30T14:40:01.587Z,10.30
2022-09-30T14:41:34.909Z,10.30
2022-09-30T14:43:15.685Z,10.30
2022-09-30T14:44:53.599Z,10.30
2022-09-30T14:46:41.588Z,10.30
2022-09-30T14:48:24.879Z,10.30
2022-09-30T14:49:58.445Z,10.40
2022-09-30T14:51:43.509Z,10.40
2022-09-30T14:53:34.759Z,10.30
2022-09-30T14:55:25.535Z,10.40
2022-09-30T14:57:01.766Z,10.40
2022-09-30T14:58:44.869Z,10.40
2022-09-30T15:00:26.717Z,10.40
2022-09-30T15:02:03.907Z,10.40
2022-09-30T15:03:41.412Z,10.40
2022-09-30T15:05:17.774Z,10.50
2022-09-30T15:06:53.157Z,10.50
2022-09-30T15:08:25.846Z,10.50
2022-09-30T15:10:02.528Z,10.50
2022-09-30T15:11:39.458Z,10.50
2022-09-30T15:13:12.033Z,10.50
2022-09-30T15:14:48.464Z,10.50
2022-09-30T15:16:30.907Z,10.50
2022-09-30T15:18:43.049Z,10.50
2022-09-30T15:20:31.550Z,10.50
2022-09-30T15:22:07.177Z,10.50
2022-09-30T15:23:45.186Z,10.50
2022-09-30T15:25:22.225Z,10.60
2022-09-30T15:26:55.599Z,10.60
2022-09-30T15:28:28.178Z,10.60
2022-09-30T15:30:22.528Z,10.50
2022-09-30T15:32:24.573Z,10.50
2022-09-30T15:34:21.722Z,10.50
2022-09-30T15:36:18.923Z,10.50
2022-09-30T15:37:53.013Z,10.50
2022-09-30T15:39:47.685Z,10.40
2022-09-30T15:41:19.941Z,10.40
2022-09-30T15:43:15.600Z,10.40
2022-09-30T15:44:48.200Z,10.40
2022-09-30T15:46:27.896Z,10.40
2022-09-30T15:48:16.879Z,10.40
2022-09-30T15:49:49.972Z,10.40
2022-09-30T15:51:32.324Z,10.40
2022-09-30T15:53:36.476Z,10.40
2022-09-30T15:55:41.767Z,10.40
2022-09-30T15:57:51.526Z,10.40
2022-09-30T16:00:02.203Z,10.30
2022-09-30T16:01:48.904Z,10.30
2022-09-30T16:03:31.291Z,10.30
2022-09-30T16:05:05.428Z,10.30
2022-09-30T16:07:08.964Z,10.30
2022-09-30T16:08:54.318Z,10.30
2022-09-30T16:10:29.154Z,10.30
2022-09-30T16:12:12.310Z,10.30
2022-09-30T16:13:45.839Z,10.40
2022-09-30T16:15:18.073Z,10.30
2022-09-30T16:16:56.053Z,10.30
2022-09-30T16:18:34.021Z,10.30
2022-09-30T16:20:17.484Z,10.30
2022-09-30T16:21:51.725Z,10.30
2022-09-30T16:23:43.160Z,10.30
2022-09-30T16:25:28.223Z,10.20
2022-09-30T16:27:29.888Z,10.20
2022-09-30T16:29:08.222Z,10.20
2022-09-30T16:30:47.021Z,10.20
2022-09-30T16:32:19.947Z,10.30
2022-09-30T16:33:52.062Z,10.20
2022-09-30T16:35:28.280Z,10.20
2022-09-30T16:37:17.443Z,10.20
2022-09-30T16:38:49.589Z,10.20
2022-09-30T16:40:26.436Z,10.20
2022-09-30T16:41:59.285Z,10.20
2022-09-30T16:43:32.147Z,10.20
2022-09-30T16:45:05.130Z,10.20
2022-09-30T16:46:37.827Z,10.30
2022-09-30T16:48:16.696Z,10.30
2022-09-30T16:49:51.105Z,10.20
2022-09-30T16:51:23.250Z,10.20
2022-09-30T16:52:56.422Z,10.20
2022-09-30T16:54:28.744Z,10.20
2022-09-30T16:56:01.373Z,10.30
2022-09-30T16:57:33.692Z,10.30
2022-09-30T16:59:13.812Z,10.20
2022-09-30T17:00:46.829Z,10.30
2022-09-30T17:02:20.237Z,10.20
2022-09-30T17:03:57.516Z,10.30
2022-09-30T17:05:29.792Z,10.30
2022-09-30T17:07:02.481Z,10.30
2022-09-30T17:08:34.664Z,10.30
2022-09-30T17:10:13.565Z,10.30
2022-09-30T17:11:46.696Z,10.30
2022-09-30T17:13:19.730Z,10.30
2022-09-30T17:14:52.783Z,10.30
2022-09-30T17:18:12.417Z,10.30
2022-09-30T17:19:44.805Z,10.30
2022-09-30T17:21:27.975Z,10.30
2022-09-30T17:23:02.637Z,10.30
2022-09-30T17:24:38.622Z,10.30
2022-09-30T17:26:11.085Z,10.30
2022-09-30T17:27:44.669Z,10.30
2022-09-30T17:29:33.308Z,10.20
2022-09-30T17:31:06.078Z,10.20
2022-09-30T17:32:38.876Z,10.20
2022-09-30T17:34:11.166Z,10.20
2022-09-30T17:35:43.342Z,10.20
2022-09-30T17:37:15.742Z,10.20
2022-09-30T17:38:53.873Z,10.10
2022-09-30T17:40:45.095Z,10.10
2022-09-30T17:42:35.636Z,10.10
2022-09-30T17:44:08.070Z,10.10
2022-09-30T17:45:44.080Z,10.10
2022-09-30T17:47:16.296Z,10.00
2022-09-30T17:48:50.814Z,10.00
2022-09-30T17:50:23.265Z,10.00
2022-09-30T17:51:55.525Z,10.00
2022-09-30T17:53:29.294Z,10.00
2022-09-30T17:55:01.672Z,10.00
2022-09-30T17:56:35.007Z,10.00
2022-09-30T17:58:09.297Z,10.00
2022-09-30T17:59:46.569Z,10.00
2022-09-30T18:01:21.380Z,10.00
2022-09-30T18:02:54.897Z,10.00
2022-09-30T18:04:27.256Z,10.00
2022-09-30T18:05:59.956Z,10.00
2022-09-30T18:07:32.184Z,10.00
2022-09-30T18:09:04.562Z,10.00
2022-09-30T18:10:37.986Z,10.00
2022-09-30T18:12:10.191Z,10.00
2022-09-30T18:13:42.290Z,10.00
2022-09-30T18:15:16.642Z,10.00
2022-09-30T18:16:48.862Z,10.00
2022-09-30T18:18:21.914Z,10.00
2022-09-30T18:19:54.097Z,10.00
2022-09-30T18:21:27.630Z,10.00
2022-09-30T18:22:59.738Z,10.00
2022-09-30T18:24:51.221Z,10.00
2022-09-30T18:26:33.341Z,10.00
2022-09-30T18:28:08.795Z,10.00
2022-09-30T18:29:41.061Z,10.00
2022-09-30T18:31:20.091Z,10.00
2022-09-30T18:32:54.410Z,10.00
2022-09-30T18:34:26.867Z,10.00
2022-09-30T18:36:01.661Z,10.10
2022-09-30T18:37:33.920Z,10.10
2022-09-30T18:39:06.173Z,10.10
2022-09-30T18:40:43.611Z,10.20
2022-09-30T18:42:17.535Z,10.10
2022-09-30T18:43:56.324Z,10.20
2022-09-30T18:45:32.203Z,10.20
2022-09-30T18:47:05.945Z,10.10
2022-09-30T18:48:39.916Z,10.10
2022-09-30T18:50:13.946Z,10.10
2022-09-30T18:51:47.019Z,10.10
2022-09-30T18:53:22.805Z,10.20
2022-09-30T18:54:55.290Z,10.20
2022-09-30T18:56:31.888Z,10.10
2022-09-30T18:58:04.828Z,10.10
2022-09-30T18:59:37.225Z,10.10
2022-09-30T19:01:09.681Z,10.10
2022-09-30T19:02:44.621Z,10.10
2022-09-30T19:04:17.164Z,10.10
2022-09-30T19:05:49.591Z,10.10
2022-09-30T19:07:22.288Z,10.10
2022-09-30T19:08:54.390Z,10.10
2022-09-30T19:10:26.933Z,10.10
2022-09-30T19:12:00.014Z,10.10
2022-09-30T19:13:32.205Z,10.10
2022-09-30T19:15:11.771Z,10.20
2022-09-30T19:16:44.607Z,10.20
2022-09-30T19:18:17.944Z,10.20
2022-09-30T19:19:50.809Z,10.20
2022-09-30T19:21:22.984Z,10.20
2022-09-30T19:22:55.897Z,10.20
2022-09-30T19:24:28.319Z,10.20
2022-09-30T19:26:01.214Z,10.30
2022-09-30T19:27:37.732Z,10.30
2022-09-30T19:29:11.098Z,10.30
2022-09-30T19:30:43.568Z,10.30
2022-09-30T19:32:18.797Z,10.30
2022-09-30T19:33:56.875Z,10.20
2022-09-30T19:35:39.031Z,10.30
2022-09-30T19:37:25.698Z,10.30
2022-09-30T19:39:11.508Z,10.30
2022-09-30T19:40:45.341Z,10.30
2022-09-30T19:42:18.378Z,10.30
2022-09-30T19:43:50.846Z,10.30
2022-09-30T19:45:25.658Z,10.30
2022-09-30T19:46:58.817Z,10.30
2022-09-30T19:48:37.245Z,10.40
2022-09-30T19:50:09.728Z,10.40
2022-09-30T19:51:42.521Z,10.40
2022-09-30T19:53:27.288Z,10.40
2022-09-30T19:55:11.770Z,10.40
2022-09-30T19:56:49.009Z,10.50
2022-09-30T19:58:21.364Z,10.50
2022-09-30T19:59:53.961Z,10.50
2022-09-30T20:01:31.644Z,10.50
2022-09-30T20:03:04.196Z,10.50
2022-09-30T20:04:36.394Z,10.50
2022-09-30T20:06:15.250Z,10.50
2022-09-30T20:07:51.063Z,10.50
2022-09-30T20:09:24.311Z,10.50
2022-09-30T20:11:10.094Z,10.50
2022-09-30T20:12:43.423Z,10.50
2022-09-30T20:14:34.420Z,10.50
2022-09-30T20:16:10.883Z,10.50
2022-09-30T20:17:43.238Z,10.50
2022-09-30T20:19:17.426Z,10.60
2022-09-30T20:20:50.047Z,10.60
2022-09-30T20:22:26.093Z,10.60
2022-09-30T20:24:02.435Z,10.60
2022-09-30T20:25:35.276Z,10.60
2022-09-30T20:27:08.243Z,10.60
2022-09-30T20:28:41.997Z,10.50
2022-09-30T20:30:14.391Z,10.50
2022-09-30T20:31:48.324Z,10.50
2022-09-30T20:33:24.464Z,10.50
2022-09-30T20:34:56.973Z,10.50
2022-09-30T20:36:31.337Z,10.50
2022-09-30T20:38:04.034Z,10.50
2022-09-30T20:39:40.483Z,10.50
2022-09-30T20:41:12.673Z,10.50
2022-09-30T20:42:44.921Z,10.50
2022-09-30T20:44:19.459Z,10.50
2022-09-30T20:46:08.290Z,10.50
2022-09-30T20:47:45.745Z,10.40
2022-09-30T20:49:17.852Z,10.40
2022-09-30T20:50:50.122Z,10.40
2022-09-30T20:52:22.426Z,10.40
2022-09-30T20:53:56.266Z,10.30
2022-09-30T20:55:28.396Z,10.40
2022-09-30T20:57:07.118Z,10.40
2022-09-30T20:58:40.222Z,10.40
2022-09-30T21:00:16.261Z,10.40
2022-09-30T21:01:48.488Z,10.40
2022-09-30T21:03:21.520Z,10.40
2022-09-30T21:04:55.492Z,10.50
2022-09-30T21:06:30.140Z,10.50
2022-09-30T21:08:03.319Z,10.50
2022-09-30T21:09:36.431Z,10.50
2022-09-30T21:11:10.969Z,10.60
2022-09-30T21:12:44.381Z,10.50
2022-09-30T21:14:18.369Z,10.60
2022-09-30T21:16:04.026Z,10.60
2022-09-30T21:17:37.088Z,10.60
2022-09-30T21:19:10.437Z,10.60
2022-09-30T21:20:42.789Z,10.60
2022-09-30T21:22:15.157Z,10.50
2022-09-30T21:23:47.850Z,10.50
2022-09-30T21:25:20.201Z,10.50
2022-09-30T21:26:55.899Z,10.40
2022-09-30T21:28:29.563Z,10.40
2022-09-30T21:30:02.424Z,10.40
2022-09-30T21:31:35.487Z,10.40
2022-09-30T21:33:07.941Z,10.50
2022-09-30T21:34:41.630Z,10.50
2022-09-30T21:36:13.949Z,10.50
2022-09-30T21:37:48.773Z,10.50
2022-09-30T21:39:20.969Z,10.50
2022-09-30T21:41:00.172Z,10.50
2022-09-30T21:42:33.549Z,10.50
2022-09-30T21:44:05.905Z,10.50
2022-09-30T21:45:38.877Z,10.50
2022-09-30T21:47:11.166Z,10.50
2022-09-30T21:48:43.583Z,10.50
2022-09-30T21:50:15.864Z,10.60
2022-09-30T21:51:48.078Z,10.60
2022-09-30T21:53:20.395Z,10.60
2022-09-30T21:54:55.868Z,10.60
2022-09-30T21:56:29.325Z,10.50
2022-09-30T21:58:01.481Z,10.50
2022-09-30T21:59:42.296Z,10.50
2022-09-30T22:01:15.138Z,10.50
2022-09-30T22:02:50.774Z,10.50